sensor_id;sensor_type;location;lat;lon;timestamp;P1;durP1;ratioP1;P2;durP2;ratioP2
5867;SDS011;2960;49.142;7.768;2023-02-18T00:01:23;13.60;;;4.90;;
5867;SDS011;2960;49.142;7.768;2023-02-18T00:03:51;10.43;;;4.27;;
5867;SDS011;2960;49.142;7.768;2023-02-18T00:06:19;11.17;;;4.73;;
5867;SDS011;2960;49.142;7.768;2023-02-18T00:08:51;10.87;;;4.60;;
5867;SDS011;2960;49.142;7.768;2023-02-18T00:11:19;11.00;;;4.70;;
5867;SDS011;2960;49.142;7.768;2023-02-18T00:13:50;10.40;;;4.43;;
5867;SDS011;2960;49.142;7.768;2023-02-18T00:16:20;11.03;;;4.40;;
5867;SDS011;2960;49.142;7.768;2023-02-18T00:18:49;10.60;;;4.80;;
5867;SDS011;2960;49.142;7.768;2023-02-18T00:21:20;10.73;;;4.10;;
5867;SDS011;2960;49.142;7.768;2023-02-18T00:23:47;11.00;;;4.17;;
5867;SDS011;2960;49.142;7.768;2023-02-18T00:26:16;10.70;;;4.37;;
5867;SDS011;2960;49.142;7.768;2023-02-18T00:28:45;11.20;;;4.57;;
5867;SDS011;2960;49.142;7.768;2023-02-18T00:31:14;10.40;;;4.00;;
5867;SDS011;2960;49.142;7.768;2023-02-18T00:33:43;10.37;;;4.43;;
5867;SDS011;2960;49.142;7.768;2023-02-18T00:36:12;10.80;;;4.40;;
5867;SDS011;2960;49.142;7.768;2023-02-18T00:38:42;10.00;;;3.97;;
5867;SDS011;2960;49.142;7.768;2023-02-18T00:41:11;11.97;;;4.77;;
5867;SDS011;2960;49.142;7.768;2023-02-18T00:43:40;10.70;;;4.07;;
5867;SDS011;2960;49.142;7.768;2023-02-18T00:46:07;10.90;;;4.73;;
5867;SDS011;2960;49.142;7.768;2023-02-18T00:48:35;10.57;;;4.47;;
5867;SDS011;2960;49.142;7.768;2023-02-18T00:51:02;10.47;;;3.80;;
5867;SDS011;2960;49.142;7.768;2023-02-18T00:53:30;10.73;;;3.93;;
5867;SDS011;2960;49.142;7.768;2023-02-18T00:55:57;10.27;;;4.13;;
5867;SDS011;2960;49.142;7.768;2023-02-18T00:58:25;10.53;;;4.20;;
5867;SDS011;2960;49.142;7.768;2023-02-18T01:00:57;10.10;;;4.03;;
5867;SDS011;2960;49.142;7.768;2023-02-18T01:03:24;10.93;;;4.57;;
5867;SDS011;2960;49.142;7.768;2023-02-18T01:05:52;10.80;;;3.93;;
5867;SDS011;2960;49.142;7.768;2023-02-18T01:08:20;11.37;;;4.37;;
5867;SDS011;2960;49.142;7.768;2023-02-18T01:10:48;10.23;;;4.10;;
5867;SDS011;2960;49.142;7.768;2023-02-18T01:13:19;9.87;;;4.07;;
5867;SDS011;2960;49.142;7.768;2023-02-18T01:15:47;10.17;;;4.03;;
5867;SDS011;2960;49.142;7.768;2023-02-18T01:18:15;10.60;;;4.40;;
5867;SDS011;2960;49.142;7.768;2023-02-18T01:20:43;11.57;;;5.33;;
5867;SDS011;2960;49.142;7.768;2023-02-18T01:23:11;10.87;;;4.80;;
5867;SDS011;2960;49.142;7.768;2023-02-18T01:25:40;10.50;;;4.70;;
5867;SDS011;2960;49.142;7.768;2023-02-18T01:28:08;11.27;;;4.83;;
5867;SDS011;2960;49.142;7.768;2023-02-18T01:30:37;11.17;;;4.57;;
5867;SDS011;2960;49.142;7.768;2023-02-18T01:33:05;10.30;;;4.37;;
5867;SDS011;2960;49.142;7.768;2023-02-18T01:35:36;10.40;;;4.30;;
5867;SDS011;2960;49.142;7.768;2023-02-18T01:38:04;11.17;;;4.40;;
5867;SDS011;2960;49.142;7.768;2023-02-18T01:40:31;11.17;;;4.60;;
5867;SDS011;2960;49.142;7.768;2023-02-18T01:42:58;11.77;;;4.90;;
5867;SDS011;2960;49.142;7.768;2023-02-18T01:45:40;12.33;;;5.07;;
5867;SDS011;2960;49.142;7.768;2023-02-18T01:48:25;11.13;;;4.87;;
5867;SDS011;2960;49.142;7.768;2023-02-18T01:51:01;12.13;;;5.13;;
5867;SDS011;2960;49.142;7.768;2023-02-18T01:53:36;10.70;;;4.50;;
5867;SDS011;2960;49.142;7.768;2023-02-18T01:56:10;10.63;;;4.70;;
5867;SDS011;2960;49.142;7.768;2023-02-18T01:58:43;12.40;;;5.00;;
5867;SDS011;2960;49.142;7.768;2023-02-18T02:01:10;11.80;;;5.00;;
5867;SDS011;2960;49.142;7.768;2023-02-18T02:03:38;11.00;;;4.87;;
5867;SDS011;2960;49.142;7.768;2023-02-18T02:06:10;11.03;;;4.77;;
5867;SDS011;2960;49.142;7.768;2023-02-18T02:08:42;13.33;;;4.73;;
5867;SDS011;2960;49.142;7.768;2023-02-18T02:11:16;12.03;;;5.30;;
5867;SDS011;2960;49.142;7.768;2023-02-18T02:14:06;11.43;;;4.20;;
5867;SDS011;2960;49.142;7.768;2023-02-18T02:16:50;11.00;;;4.50;;
5867;SDS011;2960;49.142;7.768;2023-02-18T02:26:21;10.80;;;4.80;;
5867;SDS011;2960;49.142;7.768;2023-02-18T02:29:42;11.03;;;4.47;;
5867;SDS011;2960;49.142;7.768;2023-02-18T02:36:03;12.07;;;5.27;;
5867;SDS011;2960;49.142;7.768;2023-02-18T02:38:36;11.93;;;5.20;;
5867;SDS011;2960;49.142;7.768;2023-02-18T02:41:20;12.20;;;5.47;;
5867;SDS011;2960;49.142;7.768;2023-02-18T02:44:05;10.73;;;4.63;;
5867;SDS011;2960;49.142;7.768;2023-02-18T02:46:46;11.50;;;5.00;;
5867;SDS011;2960;49.142;7.768;2023-02-18T02:49:24;11.33;;;4.97;;
5867;SDS011;2960;49.142;7.768;2023-02-18T02:52:04;11.83;;;5.33;;
5867;SDS011;2960;49.142;7.768;2023-02-18T02:54:37;11.37;;;5.03;;
5867;SDS011;2960;49.142;7.768;2023-02-18T02:57:06;11.33;;;5.20;;
5867;SDS011;2960;49.142;7.768;2023-02-18T03:00:08;11.00;;;5.00;;
5867;SDS011;2960;49.142;7.768;2023-02-18T03:02:41;12.60;;;5.70;;
5867;SDS011;2960;49.142;7.768;2023-02-18T03:05:29;12.30;;;5.50;;
5867;SDS011;2960;49.142;7.768;2023-02-18T03:08:13;12.00;;;5.50;;
5867;SDS011;2960;49.142;7.768;2023-02-18T03:10:55;11.73;;;5.07;;
5867;SDS011;2960;49.142;7.768;2023-02-18T03:13:35;12.53;;;5.50;;
5867;SDS011;2960;49.142;7.768;2023-02-18T03:16:22;11.40;;;5.30;;
5867;SDS011;2960;49.142;7.768;2023-02-18T03:18:56;11.93;;;5.20;;
5867;SDS011;2960;49.142;7.768;2023-02-18T03:21:32;11.47;;;4.87;;
5867;SDS011;2960;49.142;7.768;2023-02-18T03:24:07;13.93;;;6.30;;
5867;SDS011;2960;49.142;7.768;2023-02-18T03:26:41;12.90;;;5.90;;
5867;SDS011;2960;49.142;7.768;2023-02-18T03:29:13;12.23;;;5.30;;
5867;SDS011;2960;49.142;7.768;2023-02-18T03:31:42;11.33;;;5.40;;
5867;SDS011;2960;49.142;7.768;2023-02-18T03:34:14;11.47;;;5.00;;
5867;SDS011;2960;49.142;7.768;2023-02-18T03:36:45;11.67;;;5.03;;
5867;SDS011;2960;49.142;7.768;2023-02-18T03:39:14;13.20;;;5.60;;
5867;SDS011;2960;49.142;7.768;2023-02-18T03:41:45;11.87;;;5.37;;
5867;SDS011;2960;49.142;7.768;2023-02-18T03:44:13;12.10;;;5.77;;
5867;SDS011;2960;49.142;7.768;2023-02-18T03:46:41;11.83;;;6.00;;
5867;SDS011;2960;49.142;7.768;2023-02-18T03:49:10;12.33;;;5.87;;
5867;SDS011;2960;49.142;7.768;2023-02-18T03:51:38;12.30;;;5.90;;
5867;SDS011;2960;49.142;7.768;2023-02-18T03:54:05;12.03;;;5.83;;
5867;SDS011;2960;49.142;7.768;2023-02-18T03:56:34;11.73;;;5.60;;
5867;SDS011;2960;49.142;7.768;2023-02-18T03:59:02;12.13;;;5.77;;
5867;SDS011;2960;49.142;7.768;2023-02-18T04:01:29;12.20;;;5.47;;
5867;SDS011;2960;49.142;7.768;2023-02-18T04:03:56;12.90;;;5.70;;
5867;SDS011;2960;49.142;7.768;2023-02-18T04:06:24;11.80;;;5.83;;
5867;SDS011;2960;49.142;7.768;2023-02-18T04:08:51;10.87;;;5.07;;
5867;SDS011;2960;49.142;7.768;2023-02-18T04:11:18;11.40;;;5.23;;
5867;SDS011;2960;49.142;7.768;2023-02-18T04:13:47;11.93;;;5.37;;
5867;SDS011;2960;49.142;7.768;2023-02-18T04:16:14;11.70;;;4.67;;
5867;SDS011;2960;49.142;7.768;2023-02-18T04:18:41;12.20;;;6.10;;
5867;SDS011;2960;49.142;7.768;2023-02-18T04:21:08;11.57;;;5.10;;
5867;SDS011;2960;49.142;7.768;2023-02-18T04:23:35;11.97;;;5.33;;
5867;SDS011;2960;49.142;7.768;2023-02-18T04:26:03;12.07;;;5.37;;
5867;SDS011;2960;49.142;7.768;2023-02-18T04:28:30;12.37;;;5.63;;
5867;SDS011;2960;49.142;7.768;2023-02-18T04:30:58;12.80;;;5.33;;
5867;SDS011;2960;49.142;7.768;2023-02-18T04:33:25;12.57;;;5.70;;
5867;SDS011;2960;49.142;7.768;2023-02-18T04:35:52;11.60;;;5.20;;
5867;SDS011;2960;49.142;7.768;2023-02-18T04:38:20;13.10;;;5.50;;
5867;SDS011;2960;49.142;7.768;2023-02-18T04:40:47;12.30;;;5.83;;
5867;SDS011;2960;49.142;7.768;2023-02-18T04:43:14;12.23;;;5.67;;
5867;SDS011;2960;49.142;7.768;2023-02-18T04:45:41;12.27;;;5.87;;
5867;SDS011;2960;49.142;7.768;2023-02-18T04:48:09;11.60;;;5.47;;
5867;SDS011;2960;49.142;7.768;2023-02-18T04:50:37;12.70;;;5.90;;
5867;SDS011;2960;49.142;7.768;2023-02-18T04:53:04;12.27;;;5.47;;
5867;SDS011;2960;49.142;7.768;2023-02-18T04:55:31;11.17;;;5.50;;
5867;SDS011;2960;49.142;7.768;2023-02-18T04:57:58;12.63;;;6.00;;
5867;SDS011;2960;49.142;7.768;2023-02-18T05:00:28;12.23;;;5.53;;
5867;SDS011;2960;49.142;7.768;2023-02-18T05:02:55;12.43;;;5.93;;
5867;SDS011;2960;49.142;7.768;2023-02-18T05:05:23;12.00;;;5.80;;
5867;SDS011;2960;49.142;7.768;2023-02-18T05:07:50;12.27;;;5.87;;
5867;SDS011;2960;49.142;7.768;2023-02-18T05:10:18;11.80;;;5.20;;
5867;SDS011;2960;49.142;7.768;2023-02-18T05:12:45;11.60;;;4.97;;
5867;SDS011;2960;49.142;7.768;2023-02-18T05:15:12;12.90;;;6.30;;
5867;SDS011;2960;49.142;7.768;2023-02-18T05:17:39;13.10;;;5.63;;
5867;SDS011;2960;49.142;7.768;2023-02-18T05:20:07;12.23;;;5.57;;
5867;SDS011;2960;49.142;7.768;2023-02-18T05:22:36;12.50;;;5.43;;
5867;SDS011;2960;49.142;7.768;2023-02-18T05:25:04;11.90;;;5.13;;
5867;SDS011;2960;49.142;7.768;2023-02-18T05:27:32;12.30;;;5.60;;
5867;SDS011;2960;49.142;7.768;2023-02-18T05:29:59;12.80;;;5.70;;
5867;SDS011;2960;49.142;7.768;2023-02-18T05:32:27;11.27;;;5.00;;
5867;SDS011;2960;49.142;7.768;2023-02-18T05:34:57;11.53;;;5.37;;
5867;SDS011;2960;49.142;7.768;2023-02-18T05:37:24;11.90;;;5.60;;
5867;SDS011;2960;49.142;7.768;2023-02-18T05:39:53;12.37;;;5.67;;
5867;SDS011;2960;49.142;7.768;2023-02-18T05:42:20;11.87;;;5.00;;
5867;SDS011;2960;49.142;7.768;2023-02-18T05:44:47;10.90;;;4.73;;
5867;SDS011;2960;49.142;7.768;2023-02-18T05:47:14;12.53;;;5.30;;
5867;SDS011;2960;49.142;7.768;2023-02-18T05:49:44;10.30;;;4.33;;
5867;SDS011;2960;49.142;7.768;2023-02-18T05:52:11;10.80;;;4.53;;
5867;SDS011;2960;49.142;7.768;2023-02-18T05:54:38;11.40;;;4.87;;
5867;SDS011;2960;49.142;7.768;2023-02-18T05:57:07;11.80;;;5.10;;
5867;SDS011;2960;49.142;7.768;2023-02-18T05:59:35;11.57;;;5.23;;
5867;SDS011;2960;49.142;7.768;2023-02-18T06:02:02;12.10;;;5.10;;
5867;SDS011;2960;49.142;7.768;2023-02-18T06:04:29;11.70;;;4.90;;
5867;SDS011;2960;49.142;7.768;2023-02-18T06:06:58;12.00;;;5.40;;
5867;SDS011;2960;49.142;7.768;2023-02-18T06:09:29;10.83;;;4.50;;
5867;SDS011;2960;49.142;7.768;2023-02-18T06:11:56;12.17;;;4.87;;
5867;SDS011;2960;49.142;7.768;2023-02-18T06:14:24;9.93;;;4.37;;
5867;SDS011;2960;49.142;7.768;2023-02-18T06:16:52;11.10;;;4.83;;
5867;SDS011;2960;49.142;7.768;2023-02-18T06:19:24;12.10;;;5.27;;
5867;SDS011;2960;49.142;7.768;2023-02-18T06:21:51;11.73;;;4.97;;
5867;SDS011;2960;49.142;7.768;2023-02-18T06:24:20;11.30;;;4.57;;
5867;SDS011;2960;49.142;7.768;2023-02-18T06:26:48;11.70;;;4.97;;
5867;SDS011;2960;49.142;7.768;2023-02-18T06:29:15;10.60;;;4.40;;
5867;SDS011;2960;49.142;7.768;2023-02-18T06:31:44;13.03;;;5.40;;
5867;SDS011;2960;49.142;7.768;2023-02-18T06:34:12;12.13;;;5.47;;
5867;SDS011;2960;49.142;7.768;2023-02-18T06:36:39;12.30;;;4.67;;
5867;SDS011;2960;49.142;7.768;2023-02-18T06:39:06;11.27;;;4.77;;
5867;SDS011;2960;49.142;7.768;2023-02-18T06:41:33;11.30;;;5.10;;
5867;SDS011;2960;49.142;7.768;2023-02-18T06:44:00;11.73;;;4.90;;
5867;SDS011;2960;49.142;7.768;2023-02-18T06:46:28;11.53;;;4.90;;
5867;SDS011;2960;49.142;7.768;2023-02-18T06:48:56;11.73;;;5.13;;
5867;SDS011;2960;49.142;7.768;2023-02-18T06:51:23;11.60;;;4.93;;
5867;SDS011;2960;49.142;7.768;2023-02-18T06:53:50;11.70;;;4.87;;
5867;SDS011;2960;49.142;7.768;2023-02-18T06:56:20;11.13;;;4.80;;
5867;SDS011;2960;49.142;7.768;2023-02-18T06:58:47;10.60;;;4.47;;
5867;SDS011;2960;49.142;7.768;2023-02-18T07:01:14;11.20;;;4.97;;
5867;SDS011;2960;49.142;7.768;2023-02-18T07:03:43;14.50;;;5.77;;
5867;SDS011;2960;49.142;7.768;2023-02-18T07:06:11;13.40;;;5.80;;
5867;SDS011;2960;49.142;7.768;2023-02-18T07:08:38;11.77;;;4.93;;
5867;SDS011;2960;49.142;7.768;2023-02-18T07:11:05;11.70;;;4.90;;
5867;SDS011;2960;49.142;7.768;2023-02-18T07:13:33;10.73;;;4.30;;
5867;SDS011;2960;49.142;7.768;2023-02-18T07:16:00;10.50;;;4.50;;
5867;SDS011;2960;49.142;7.768;2023-02-18T07:18:27;11.17;;;4.87;;
5867;SDS011;2960;49.142;7.768;2023-02-18T07:20:54;10.93;;;4.60;;
5867;SDS011;2960;49.142;7.768;2023-02-18T07:23:22;11.23;;;4.23;;
5867;SDS011;2960;49.142;7.768;2023-02-18T07:25:50;12.07;;;4.50;;
5867;SDS011;2960;49.142;7.768;2023-02-18T07:28:17;13.57;;;5.40;;
5867;SDS011;2960;49.142;7.768;2023-02-18T07:30:44;11.80;;;4.97;;
5867;SDS011;2960;49.142;7.768;2023-02-18T07:33:11;12.10;;;5.30;;
5867;SDS011;2960;49.142;7.768;2023-02-18T07:35:39;11.90;;;4.57;;
5867;SDS011;2960;49.142;7.768;2023-02-18T07:38:06;12.13;;;5.00;;
5867;SDS011;2960;49.142;7.768;2023-02-18T07:40:35;11.53;;;5.10;;
5867;SDS011;2960;49.142;7.768;2023-02-18T07:43:02;12.03;;;5.40;;
5867;SDS011;2960;49.142;7.768;2023-02-18T07:45:29;12.20;;;5.23;;
5867;SDS011;2960;49.142;7.768;2023-02-18T07:47:56;11.90;;;5.30;;
5867;SDS011;2960;49.142;7.768;2023-02-18T07:50:23;12.40;;;4.93;;
5867;SDS011;2960;49.142;7.768;2023-02-18T07:52:51;11.73;;;5.20;;
5867;SDS011;2960;49.142;7.768;2023-02-18T07:55:18;12.40;;;5.00;;
5867;SDS011;2960;49.142;7.768;2023-02-18T07:57:46;11.33;;;5.40;;
5867;SDS011;2960;49.142;7.768;2023-02-18T08:00:24;11.40;;;5.10;;
5867;SDS011;2960;49.142;7.768;2023-02-18T08:02:52;11.43;;;4.97;;
5867;SDS011;2960;49.142;7.768;2023-02-18T08:05:19;12.97;;;5.30;;
5867;SDS011;2960;49.142;7.768;2023-02-18T08:07:46;11.00;;;4.67;;
5867;SDS011;2960;49.142;7.768;2023-02-18T08:10:13;11.80;;;5.33;;
5867;SDS011;2960;49.142;7.768;2023-02-18T08:12:40;12.47;;;5.80;;
5867;SDS011;2960;49.142;7.768;2023-02-18T08:15:09;12.20;;;5.10;;
5867;SDS011;2960;49.142;7.768;2023-02-18T08:17:36;11.70;;;5.27;;
5867;SDS011;2960;49.142;7.768;2023-02-18T08:20:04;11.60;;;4.90;;
5867;SDS011;2960;49.142;7.768;2023-02-18T08:22:32;12.03;;;5.00;;
5867;SDS011;2960;49.142;7.768;2023-02-18T08:24:59;10.90;;;4.57;;
5867;SDS011;2960;49.142;7.768;2023-02-18T08:27:26;14.87;;;5.40;;
5867;SDS011;2960;49.142;7.768;2023-02-18T08:29:53;11.10;;;4.77;;
5867;SDS011;2960;49.142;7.768;2023-02-18T08:32:22;12.93;;;5.03;;
5867;SDS011;2960;49.142;7.768;2023-02-18T08:34:53;11.67;;;5.10;;
5867;SDS011;2960;49.142;7.768;2023-02-18T08:37:21;10.93;;;4.47;;
5867;SDS011;2960;49.142;7.768;2023-02-18T08:39:49;11.57;;;5.10;;
5867;SDS011;2960;49.142;7.768;2023-02-18T08:42:16;13.03;;;5.40;;
5867;SDS011;2960;49.142;7.768;2023-02-18T08:44:44;11.07;;;4.43;;
5867;SDS011;2960;49.142;7.768;2023-02-18T08:47:11;12.23;;;4.83;;
5867;SDS011;2960;49.142;7.768;2023-02-18T08:49:39;12.20;;;4.93;;
5867;SDS011;2960;49.142;7.768;2023-02-18T08:52:06;11.30;;;4.60;;
5867;SDS011;2960;49.142;7.768;2023-02-18T08:54:34;12.53;;;4.73;;
5867;SDS011;2960;49.142;7.768;2023-02-18T08:57:01;11.03;;;4.50;;
5867;SDS011;2960;49.142;7.768;2023-02-18T08:59:28;11.40;;;5.40;;
5867;SDS011;2960;49.142;7.768;2023-02-18T09:01:55;12.33;;;5.10;;
5867;SDS011;2960;49.142;7.768;2023-02-18T09:04:22;11.97;;;5.10;;
5867;SDS011;2960;49.142;7.768;2023-02-18T09:06:51;11.13;;;4.40;;
5867;SDS011;2960;49.142;7.768;2023-02-18T09:09:18;11.43;;;4.70;;
5867;SDS011;2960;49.142;7.768;2023-02-18T09:11:45;11.30;;;5.10;;
5867;SDS011;2960;49.142;7.768;2023-02-18T09:14:12;11.37;;;4.97;;
5867;SDS011;2960;49.142;7.768;2023-02-18T09:16:40;10.87;;;4.33;;
5867;SDS011;2960;49.142;7.768;2023-02-18T09:19:09;11.97;;;4.80;;
5867;SDS011;2960;49.142;7.768;2023-02-18T09:21:36;11.70;;;5.10;;
5867;SDS011;2960;49.142;7.768;2023-02-18T09:24:07;11.10;;;4.50;;
5867;SDS011;2960;49.142;7.768;2023-02-18T09:26:35;14.23;;;4.83;;
5867;SDS011;2960;49.142;7.768;2023-02-18T09:29:03;11.00;;;4.77;;
5867;SDS011;2960;49.142;7.768;2023-02-18T09:31:31;16.67;;;6.53;;
5867;SDS011;2960;49.142;7.768;2023-02-18T09:33:58;14.10;;;6.10;;
5867;SDS011;2960;49.142;7.768;2023-02-18T09:36:27;12.93;;;5.87;;
5867;SDS011;2960;49.142;7.768;2023-02-18T09:38:57;11.63;;;5.23;;
5867;SDS011;2960;49.142;7.768;2023-02-18T09:41:31;11.77;;;5.37;;
5867;SDS011;2960;49.142;7.768;2023-02-18T09:44:04;17.23;;;5.90;;
5867;SDS011;2960;49.142;7.768;2023-02-18T09:46:38;11.83;;;5.20;;
5867;SDS011;2960;49.142;7.768;2023-02-18T09:49:12;16.87;;;7.20;;
5867;SDS011;2960;49.142;7.768;2023-02-18T09:51:43;51.53;;;17.90;;
5867;SDS011;2960;49.142;7.768;2023-02-18T09:54:10;31.40;;;13.37;;
5867;SDS011;2960;49.142;7.768;2023-02-18T09:56:42;35.13;;;14.20;;
5867;SDS011;2960;49.142;7.768;2023-02-18T09:59:12;23.50;;;10.43;;
5867;SDS011;2960;49.142;7.768;2023-02-18T10:01:43;25.13;;;9.17;;
5867;SDS011;2960;49.142;7.768;2023-02-18T10:04:14;16.50;;;7.93;;
5867;SDS011;2960;49.142;7.768;2023-02-18T10:06:43;17.17;;;7.20;;
5867;SDS011;2960;49.142;7.768;2023-02-18T10:09:15;14.40;;;6.43;;
5867;SDS011;2960;49.142;7.768;2023-02-18T10:11:49;13.93;;;6.67;;
5867;SDS011;2960;49.142;7.768;2023-02-18T10:14:20;13.40;;;5.87;;
5867;SDS011;2960;49.142;7.768;2023-02-18T10:16:48;13.80;;;6.50;;
5867;SDS011;2960;49.142;7.768;2023-02-18T10:19:19;12.47;;;5.70;;
5867;SDS011;2960;49.142;7.768;2023-02-18T10:21:54;11.47;;;5.57;;
5867;SDS011;2960;49.142;7.768;2023-02-18T10:24:27;11.87;;;5.23;;
5867;SDS011;2960;49.142;7.768;2023-02-18T10:27:00;11.87;;;5.47;;
5867;SDS011;2960;49.142;7.768;2023-02-18T10:29:33;11.40;;;5.17;;
5867;SDS011;2960;49.142;7.768;2023-02-18T10:32:03;14.57;;;5.50;;
5867;SDS011;2960;49.142;7.768;2023-02-18T10:34:38;12.70;;;5.23;;
5867;SDS011;2960;49.142;7.768;2023-02-18T10:37:10;12.43;;;5.50;;
5867;SDS011;2960;49.142;7.768;2023-02-18T10:39:58;11.37;;;4.90;;
5867;SDS011;2960;49.142;7.768;2023-02-18T10:42:38;13.17;;;5.30;;
5867;SDS011;2960;49.142;7.768;2023-02-18T10:45:18;11.37;;;5.20;;
5867;SDS011;2960;49.142;7.768;2023-02-18T10:47:57;11.57;;;5.30;;
5867;SDS011;2960;49.142;7.768;2023-02-18T10:50:46;11.57;;;5.23;;
5867;SDS011;2960;49.142;7.768;2023-02-18T10:53:15;11.67;;;5.77;;
5867;SDS011;2960;49.142;7.768;2023-02-18T10:55:58;11.40;;;5.70;;
5867;SDS011;2960;49.142;7.768;2023-02-18T10:58:29;10.43;;;4.87;;
5867;SDS011;2960;49.142;7.768;2023-02-18T11:01:00;11.13;;;5.37;;
5867;SDS011;2960;49.142;7.768;2023-02-18T11:03:39;25.30;;;10.30;;
5867;SDS011;2960;49.142;7.768;2023-02-18T11:06:15;23.77;;;9.70;;
5867;SDS011;2960;49.142;7.768;2023-02-18T11:08:47;25.70;;;10.43;;
5867;SDS011;2960;49.142;7.768;2023-02-18T11:11:16;20.70;;;9.33;;
5867;SDS011;2960;49.142;7.768;2023-02-18T11:13:52;15.50;;;7.17;;
5867;SDS011;2960;49.142;7.768;2023-02-18T11:16:21;13.30;;;6.07;;
5867;SDS011;2960;49.142;7.768;2023-02-18T11:18:49;12.70;;;5.73;;
5867;SDS011;2960;49.142;7.768;2023-02-18T11:21:25;12.30;;;5.80;;
5867;SDS011;2960;49.142;7.768;2023-02-18T11:23:56;12.97;;;5.47;;
5867;SDS011;2960;49.142;7.768;2023-02-18T11:26:33;12.00;;;5.73;;
5867;SDS011;2960;49.142;7.768;2023-02-18T11:29:04;12.03;;;4.90;;
5867;SDS011;2960;49.142;7.768;2023-02-18T11:31:40;12.20;;;5.50;;
5867;SDS011;2960;49.142;7.768;2023-02-18T11:34:15;11.47;;;5.07;;
5867;SDS011;2960;49.142;7.768;2023-02-18T11:36:45;12.97;;;6.10;;
5867;SDS011;2960;49.142;7.768;2023-02-18T11:39:16;11.40;;;5.20;;
5867;SDS011;2960;49.142;7.768;2023-02-18T11:41:52;11.33;;;5.30;;
5867;SDS011;2960;49.142;7.768;2023-02-18T11:44:25;11.20;;;5.30;;
5867;SDS011;2960;49.142;7.768;2023-02-18T11:46:56;11.40;;;5.47;;
5867;SDS011;2960;49.142;7.768;2023-02-18T11:49:26;10.70;;;4.90;;
5867;SDS011;2960;49.142;7.768;2023-02-18T11:52:02;11.80;;;5.60;;
5867;SDS011;2960;49.142;7.768;2023-02-18T11:54:39;11.67;;;5.60;;
5867;SDS011;2960;49.142;7.768;2023-02-18T11:57:09;13.50;;;5.80;;
5867;SDS011;2960;49.142;7.768;2023-02-18T11:59:39;11.93;;;5.57;;
5867;SDS011;2960;49.142;7.768;2023-02-18T12:02:13;12.40;;;5.50;;
5867;SDS011;2960;49.142;7.768;2023-02-18T12:04:57;10.93;;;5.03;;
5867;SDS011;2960;49.142;7.768;2023-02-18T12:07:29;10.77;;;4.60;;
5867;SDS011;2960;49.142;7.768;2023-02-18T12:10:09;12.27;;;5.30;;
5867;SDS011;2960;49.142;7.768;2023-02-18T12:12:42;12.07;;;5.40;;
5867;SDS011;2960;49.142;7.768;2023-02-18T12:15:15;11.90;;;5.43;;
5867;SDS011;2960;49.142;7.768;2023-02-18T12:17:50;13.80;;;5.53;;
5867;SDS011;2960;49.142;7.768;2023-02-18T12:20:53;12.57;;;6.10;;
5867;SDS011;2960;49.142;7.768;2023-02-18T12:23:42;12.57;;;5.67;;
5867;SDS011;2960;49.142;7.768;2023-02-18T12:26:24;11.70;;;5.67;;
5867;SDS011;2960;49.142;7.768;2023-02-18T12:29:01;14.03;;;5.37;;
5867;SDS011;2960;49.142;7.768;2023-02-18T12:31:55;13.43;;;5.77;;
5867;SDS011;2960;49.142;7.768;2023-02-18T12:34:35;12.17;;;5.57;;
5867;SDS011;2960;49.142;7.768;2023-02-18T12:37:30;12.50;;;5.57;;
5867;SDS011;2960;49.142;7.768;2023-02-18T12:40:20;12.13;;;5.40;;
5867;SDS011;2960;49.142;7.768;2023-02-18T12:43:21;13.20;;;5.93;;
5867;SDS011;2960;49.142;7.768;2023-02-18T12:46:11;12.23;;;5.10;;
5867;SDS011;2960;49.142;7.768;2023-02-18T12:52:10;14.00;;;6.20;;
5867;SDS011;2960;49.142;7.768;2023-02-18T12:55:01;12.17;;;5.60;;
5867;SDS011;2960;49.142;7.768;2023-02-18T12:57:54;15.40;;;6.20;;
5867;SDS011;2960;49.142;7.768;2023-02-18T13:00:37;13.17;;;5.97;;
5867;SDS011;2960;49.142;7.768;2023-02-18T13:06:41;12.83;;;6.37;;
5867;SDS011;2960;49.142;7.768;2023-02-18T13:09:40;12.50;;;5.37;;
5867;SDS011;2960;49.142;7.768;2023-02-18T13:12:23;13.67;;;5.90;;
5867;SDS011;2960;49.142;7.768;2023-02-18T13:14:59;13.20;;;6.37;;
5867;SDS011;2960;49.142;7.768;2023-02-18T13:17:31;12.40;;;5.80;;
5867;SDS011;2960;49.142;7.768;2023-02-18T13:20:03;14.20;;;6.43;;
5867;SDS011;2960;49.142;7.768;2023-02-18T13:22:36;12.20;;;5.37;;
5867;SDS011;2960;49.142;7.768;2023-02-18T13:25:04;11.87;;;5.70;;
5867;SDS011;2960;49.142;7.768;2023-02-18T13:27:39;14.03;;;6.13;;
5867;SDS011;2960;49.142;7.768;2023-02-18T13:30:18;12.67;;;6.03;;
5867;SDS011;2960;49.142;7.768;2023-02-18T13:33:04;12.23;;;6.17;;
5867;SDS011;2960;49.142;7.768;2023-02-18T13:35:41;14.07;;;6.03;;
5867;SDS011;2960;49.142;7.768;2023-02-18T13:38:28;12.50;;;5.10;;
5867;SDS011;2960;49.142;7.768;2023-02-18T13:41:15;12.03;;;5.40;;
5867;SDS011;2960;49.142;7.768;2023-02-18T13:43:45;12.83;;;5.47;;
5867;SDS011;2960;49.142;7.768;2023-02-18T13:46:13;12.70;;;5.80;;
5867;SDS011;2960;49.142;7.768;2023-02-18T13:48:46;12.70;;;5.33;;
5867;SDS011;2960;49.142;7.768;2023-02-18T13:51:26;11.43;;;5.00;;
5867;SDS011;2960;49.142;7.768;2023-02-18T13:53:58;12.67;;;5.80;;
5867;SDS011;2960;49.142;7.768;2023-02-18T13:56:31;12.90;;;6.20;;
5867;SDS011;2960;49.142;7.768;2023-02-18T13:59:05;13.70;;;5.83;;
5867;SDS011;2960;49.142;7.768;2023-02-18T14:01:38;12.50;;;5.77;;
5867;SDS011;2960;49.142;7.768;2023-02-18T14:07:36;12.27;;;5.60;;
5867;SDS011;2960;49.142;7.768;2023-02-18T14:10:30;12.50;;;5.47;;
5867;SDS011;2960;49.142;7.768;2023-02-18T14:13:00;12.50;;;5.87;;
5867;SDS011;2960;49.142;7.768;2023-02-18T14:15:52;12.90;;;5.70;;
5867;SDS011;2960;49.142;7.768;2023-02-18T14:18:33;12.17;;;5.53;;
5867;SDS011;2960;49.142;7.768;2023-02-18T14:21:36;12.43;;;6.40;;
5867;SDS011;2960;49.142;7.768;2023-02-18T14:24:09;12.30;;;5.87;;
5867;SDS011;2960;49.142;7.768;2023-02-18T14:26:42;12.23;;;5.53;;
5867;SDS011;2960;49.142;7.768;2023-02-18T14:29:12;13.10;;;5.80;;
5867;SDS011;2960;49.142;7.768;2023-02-18T14:31:54;13.07;;;5.37;;
5867;SDS011;2960;49.142;7.768;2023-02-18T14:37:56;11.77;;;5.63;;
5867;SDS011;2960;49.142;7.768;2023-02-18T14:43:57;11.20;;;5.00;;
5867;SDS011;2960;49.142;7.768;2023-02-18T14:46:45;12.03;;;4.60;;
5867;SDS011;2960;49.142;7.768;2023-02-18T14:49:31;12.00;;;5.30;;
5867;SDS011;2960;49.142;7.768;2023-02-18T14:52:10;11.97;;;5.00;;
5867;SDS011;2960;49.142;7.768;2023-02-18T14:54:49;12.03;;;5.40;;
5867;SDS011;2960;49.142;7.768;2023-02-18T14:57:16;12.60;;;5.93;;
5867;SDS011;2960;49.142;7.768;2023-02-18T14:59:51;13.47;;;5.73;;
5867;SDS011;2960;49.142;7.768;2023-02-18T15:02:25;13.30;;;6.00;;
5867;SDS011;2960;49.142;7.768;2023-02-18T15:05:00;13.20;;;5.83;;
5867;SDS011;2960;49.142;7.768;2023-02-18T15:07:38;12.27;;;5.40;;
5867;SDS011;2960;49.142;7.768;2023-02-18T15:10:10;11.90;;;5.70;;
5867;SDS011;2960;49.142;7.768;2023-02-18T15:12:40;11.53;;;5.10;;
5867;SDS011;2960;49.142;7.768;2023-02-18T15:15:09;12.97;;;6.37;;
5867;SDS011;2960;49.142;7.768;2023-02-18T15:17:43;13.30;;;6.30;;
5867;SDS011;2960;49.142;7.768;2023-02-18T15:20:13;12.80;;;5.87;;
5867;SDS011;2960;49.142;7.768;2023-02-18T15:22:41;14.33;;;6.27;;
5867;SDS011;2960;49.142;7.768;2023-02-18T15:25:09;12.73;;;5.80;;
5867;SDS011;2960;49.142;7.768;2023-02-18T15:27:39;13.70;;;6.77;;
5867;SDS011;2960;49.142;7.768;2023-02-18T15:30:23;14.43;;;6.43;;
5867;SDS011;2960;49.142;7.768;2023-02-18T15:32:53;11.87;;;5.87;;
5867;SDS011;2960;49.142;7.768;2023-02-18T15:35:22;12.10;;;5.90;;
5867;SDS011;2960;49.142;7.768;2023-02-18T15:37:55;11.83;;;5.50;;
5867;SDS011;2960;49.142;7.768;2023-02-18T15:40:26;12.03;;;5.73;;
5867;SDS011;2960;49.142;7.768;2023-02-18T15:42:56;12.60;;;5.90;;
5867;SDS011;2960;49.142;7.768;2023-02-18T15:45:30;12.30;;;5.90;;
5867;SDS011;2960;49.142;7.768;2023-02-18T15:48:00;12.30;;;5.97;;
5867;SDS011;2960;49.142;7.768;2023-02-18T15:50:29;12.50;;;5.80;;
5867;SDS011;2960;49.142;7.768;2023-02-18T15:53:03;12.93;;;6.30;;
5867;SDS011;2960;49.142;7.768;2023-02-18T15:55:33;13.00;;;6.30;;
5867;SDS011;2960;49.142;7.768;2023-02-18T15:58:04;11.60;;;5.30;;